Terminal Aerodrome Forecast
Issued by NWS

Home | Current Version | Previous Version | Text Only | Print | Product List | Glossary On
Versions: 1 2 3 4 5 6 7 8 9 10 11 12
545
FTPA31 PHFO 242331
TAFHKO
TAF
PHKO 242331Z 2500/2524 21010KT P6SM SKC
     FM250300 18007KT P6SM BKN060
     FM250700 06004KT P6SM FEW035 SCT060
     FM252000 21010KT P6SM SKC=

USA.gov is the U.S. government's official web portal to all federal, state and local government web resources and services.